Terminal Aerodrome Forecast
Issued by NWS

Home | Current Version | Previous Version | Text Only | Print | Product List | Glossary On
Versions: 1 2 3 4 5 6 7 8 9 10 11 12 13 14 15 16 17 18 19
000
FTUS44 KMAF 171920 AAB
TAFINK
TAF AMD
KINK 171920Z 1719/1818 12010KT P6SM SCT050 SCT250
     FM180200 13007KT P6SM SCT200
     FM181600 13009G19KT P6SM SCT050 BKN250=

USA.gov is the U.S. government's official web portal to all federal, state and local government web resources and services.